Klemme/'s Corner

Nearby METAR Reports

 

KI67 - Harrison, Ohio, USA
Distance from station: ESE 14mi, 23km
Updated: Tue, 20-Nov-2018 10:55am EST
Overcast
Overcast
 Wind from WNW
Wind: WNW 7 mph , 11 km/h
Temperature: 37°F , 3°C
Wind Chill: 32°F , 0°C
Dew Point: 32°F , 0°C
Humidity: 81%
Barometer: 30.22 inHg , 1023.4 hPa
Clouds: Overcast
Visibility: 10 miles , 16 km
Cloud details: Partly cloudy 1800 ft
Partly cloudy 2400 ft
Overcast 3800 ft
2018/11/20 15:55 KI67 201555Z AUTO 29006KT 10SM SCT018 SCT024 OVC038 03/00 A3022 RMK AO1
KHAO - Hamilton, Ohio, USA
Distance from station: E 26mi, 42km
Updated: Tue, 20-Nov-2018 10:53am EST
Overcast
Overcast
 Wind from WNW
Wind: WNW 9 mph , 15 km/h
Temperature: 37°F , 3°C
Wind Chill: 30°F , -1°C
Dew Point: 34°F , 1°C
Humidity: 87%
Barometer: 30.21 inHg , 1023 hPa
Clouds: Overcast
Visibility: 10 miles , 16 km
Cloud details: Few Clouds 1900 ft
Overcast 3700 ft
2018/11/20 15:53 KHAO 201553Z AUTO 29008KT 10SM FEW019 OVC037 03/01 A3021 RMK AO2 SLP236 T00330006
 
KCVG - Covington, Kentucky, USA
Distance from station: SE 28mi, 45km
Updated: Tue, 20-Nov-2018 10:52am EST
Overcast
Overcast
 Wind from NW
Wind: NW 13 mph , 20 km/h
Temperature: 37°F , 3°C
Wind Chill: 29°F , -2°C
Dew Point: 34°F , 1°C
Humidity: 87%
Barometer: 30.19 inHg , 1022.4 hPa
Clouds: Overcast
Visibility: 7 miles , 11 km
Cloud details: Partly cloudy 1300 ft
Overcast 2500 ft
2018/11/20 15:52 KCVG 201552Z 31011KT 7SM SCT013 OVC025 03/01 A3019 RMK AO2 RAB1455E13 SLP227 P0000 T00330011
KRID - Richmond, Indiana, USA
Distance from station: NNE 29mi, 46km
Updated: Tue, 20-Nov-2018 10:55am EST
Mist, Overcast
Mist, Overcast
 Wind from WNW
Wind: WNW 10 mph , 17 km/h
Temperature: 32°F , 0°C
Wind Chill: 24°F , -4°C
Dew Point: 32°F , 0°C
Humidity: 100%
Barometer: 30.18 inHg , 1022 hPa
Summary: Mist
Clouds: Overcast
Visibility: 4 miles , 6 km
Cloud details: Partly cloudy 1300 ft
Partly cloudy 1800 ft
Overcast 3500 ft
2018/11/20 15:55 KRID 201555Z AUTO 30009KT 4SM BR SCT013 SCT018 OVC035 00/00 A3018 RMK AO2
 
KMWO - Middletown/Hook, Ohio, USA
Distance from station: ENE 35mi, 56km
Updated: Tue, 20-Nov-2018 10:55am EST
Overcast
Overcast
 Wind from NW
Wind: NW 12 mph , 19 km/h
Temperature: 39°F , 4°C
Wind Chill: 32°F , 0°C
Dew Point: 32°F , 0°C
Humidity: 75%
Barometer: 30.21 inHg , 1023 hPa
Clouds: Overcast
Visibility: 10 miles , 16 km
Cloud details: Overcast 4500 ft
2018/11/20 15:55 KMWO 201555Z AUTO 31010KT 10SM OVC045 04/00 A3021 RMK AO2 T00350001
KLUK - Cincinnat/Lunken, Ohio, USA
Distance from station: ESE 36mi, 58km
Updated: Tue, 20-Nov-2018 10:53am EST
Overcast
Overcast
 Wind from NW
Wind: NW 9 mph , 15 km/h
Temperature: 39°F , 4°C
Wind Chill: 33°F , 1°C
Dew Point: 36°F , 2°C
Humidity: 87%
Barometer: 30.22 inHg , 1023.4 hPa
Clouds: Overcast
Visibility: 10 miles , 16 km
Cloud details: Partly cloudy 1600 ft
Mostly cloudy 2100 ft
Overcast 3000 ft
2018/11/20 15:53 KLUK 201553Z 32008KT 10SM SCT016 BKN021 OVC030 04/02 A3022 RMK AO2 RAB1459E21 SLP236 P0003 T00390022
 
KMGY - Dayton, Ohio, USA
Distance from station: ENE 45mi, 72km
Updated: Tue, 20-Nov-2018 10:53am EST
Haze, Overcast
Haze, Overcast
 Wind from NW
Wind: NW 12 mph , 19 km/h
Temperature: 39°F , 4°C
Wind Chill: 32°F , 0°C
Dew Point: 32°F , 0°C
Humidity: 75%
Barometer: 30.17 inHg , 1021.7 hPa
Summary: Haze
Clouds: Overcast
Visibility: 6 miles , 10 km
Cloud details: Partly cloudy 1600 ft
Overcast 4300 ft
2018/11/20 15:53 KMGY 201553Z AUTO 32010KT 6SM HZ SCT016 OVC043 04/00 A3017 RMK AO2 SLP224 T00390000
KGEZ - Shelbyville, Indiana, USA
Distance from station: WNW 45mi, 73km
Updated: Tue, 20-Nov-2018 10:53am EST
Mist, Overcast
Mist, Overcast
 Wind from W
Wind: W 10 mph , 17 km/h
Temperature: 34°F , 1°C
Wind Chill: 26°F , -3°C
Dew Point: 30°F , -1°C
Humidity: 87%
Barometer: 30.22 inHg , 1023.4 hPa
Summary: Mist
Clouds: Overcast
Visibility: 5 miles , 8 km
Cloud details: Overcast 900 ft
2018/11/20 15:53 KGEZ 201553Z AUTO 28009KT 5SM BR OVC009 01/M01 A3022 RMK AO2 SLP240 T00111011
 
KI69 - Batavia, Ohio, USA
Distance from station: ESE 46mi, 74km
Updated: Tue, 20-Nov-2018 10:56am EST
Light snow, Overcast
Light snow, Overcast
 Wind from NNW
Wind: NNW 9 mph , 15 km/h, Gust: 16 mph , 26 km/h
Temperature: 37°F , 3°C
Wind Chill: 30°F , -1°C
Dew Point: 36°F , 2°C
Humidity: 93%
Barometer: 30.20 inHg , 1022.7 hPa
Summary: Light Snow
Clouds: Overcast
Visibility: 7 miles , 11 km
Cloud details: Mostly cloudy 900 ft
Overcast 1500 ft
2018/11/20 15:56 KI69 201556Z AUTO 33008G14KT 7SM -SN BKN009 OVC015 03/02 A3020 RMK AO2 T00310016
KIMS - Madison, Indiana, USA
Distance from station: SSW 48mi, 76km
Updated: Thu, 15-Nov-2018 1:55am EST
NOT Current
Overcast
Overcast
 Wind from E
Wind: E 3 mph , 6 km/h
Temperature: 32°F , 0°C
Dew Point: 32°F , 0°C
Humidity: 100%
Barometer: 30.20 inHg , 1022.7 hPa
Clouds: Overcast
Visibility: 3/4 mile , 1.2 km
Cloud details: Overcast 1100 ft
2018/11/15 06:55 KIMS 150655Z AUTO 08003KT 3/4SM OVC011 00/00 A3020 RMK AO1
 
KBAK - Columbus/Balkala, Indiana, USA
Distance from station: W 48mi, 78km
Updated: Tue, 20-Nov-2018 10:45am EST
Overcast
Overcast
 Wind from NW
Wind: NW 7 mph , 11 km/h
Temperature: 34°F , 1°C
Wind Chill: 28°F , -2°C
Dew Point: 27°F , -3°C
Humidity: 75%
Barometer: 30.25 inHg , 1024.4 hPa
Clouds: Overcast
Visibility: 7 miles , 11 km
Cloud details: Overcast 1800 ft
2018/11/20 15:45 KBAK 201545Z 31006KT 7SM OVC018 01/M03 A3025